Terminal Aerodrome Forecast
Issued by NWS

Home | Current Version | Previous Version | Text Only | Print | Product List | Glossary On
Versions: 1 2 3 4 5 6 7 8 9 10 11 12 13 14 15 16 17 18 19 20 21 22 23 24 25
000
FTUS42 KFFC 160500
TAFRYY
TAF
KRYY 160528Z 1606/1706 35008KT P6SM SKC
     FM161000 02004KT P6SM SKC
     FM161200 05006KT P6SM SKC
     FM161500 10009G16KT P6SM SCT250
     FM170000 10007KT P6SM SCT250
      AMD NOT SKED TIL 161200=

USA.gov is the U.S. government's official web portal to all federal, state and local government web resources and services.